Time;durP1;ratioP1;P1;durP2;ratioP2;P2;SDS_P1;SDS_P2;PMS_P1;PMS_P2;Temp;Humidity;BMP_temperature;BMP_pressure;BME280_temperature;BME280_humidity;BME280_pressure;Samples;Min_cycle;Max_cycle;Signal;HPM_P1;HPM_P2
2023/01/29 00:02:20;;;;;;;10.43;5.95;;;;;;;;;;5052400;28;20041;-67
2023/01/29 00:05:06;;;;;;;10.55;6.32;;;;;;;;;;5051429;28;20033;-69
2023/01/29 00:07:51;;;;;;;9.90;5.32;;;;;;;;;;5064262;28;20039;-72
2023/01/29 00:10:36;;;;;;;10.82;5.72;;;;;;;;;;5051959;28;20045;-71
2023/01/29 00:13:21;;;;;;;9.82;5.78;;;;;;;;;;5047177;28;20031;-71
2023/01/29 00:16:07;;;;;;;9.63;5.32;;;;;;;;;;5033674;28;20033;-69
2023/01/29 00:18:52;;;;;;;10.23;5.60;;;;;;;;;;5056053;28;20032;-72
2023/01/29 00:21:37;;;;;;;8.90;5.22;;;;;;;;;;5051359;28;20036;-70
2023/01/29 00:24:22;;;;;;;13.20;6.38;;;;;;;;;;5051187;28;20056;-72
2023/01/29 00:27:07;;;;;;;8.45;4.95;;;;;;;;;;5047937;28;20045;-80
2023/01/29 00:30:08;;;;;;;10.15;5.97;;;;;;;;;;5065029;28;20034;-72
2023/01/29 00:32:53;;;;;;;8.85;5.35;;;;;;;;;;5051589;28;20040;-72
2023/01/29 00:35:39;;;;;;;9.60;5.13;;;;;;;;;;5054058;28;20046;-71
2023/01/29 00:38:25;;;;;;;9.10;4.88;;;;;;;;;;5058271;28;20037;-72
2023/01/29 00:47:34;;;;;;;8.07;5.05;;;;;;;;;;5043304;28;20032;-79
2023/01/29 00:50:19;;;;;;;7.90;4.75;;;;;;;;;;5053600;28;20536;-76
2023/01/29 00:53:04;;;;;;;7.18;4.72;;;;;;;;;;5055783;28;20058;-75
2023/01/29 00:55:50;;;;;;;7.40;4.97;;;;;;;;;;5044746;28;20029;-76
2023/01/29 00:58:35;;;;;;;6.97;4.15;;;;;;;;;;5044227;28;20056;-76
2023/01/29 01:04:26;;;;;;;8.52;5.32;;;;;;;;;;5052702;28;20013;-78
2023/01/29 01:07:11;;;;;;;7.25;4.75;;;;;;;;;;5053941;28;20028;-73
2023/01/29 01:13:01;;;;;;;9.23;4.40;;;;;;;;;;5057942;28;20127;-70
2023/01/29 01:15:47;;;;;;;9.38;4.70;;;;;;;;;;5057258;28;20030;-73
2023/01/29 01:18:32;;;;;;;10.70;5.38;;;;;;;;;;5059342;28;20506;-71
2023/01/29 01:21:17;;;;;;;8.93;4.70;;;;;;;;;;5046454;28;20017;-75
2023/01/29 01:24:04;;;;;;;13.90;6.03;;;;;;;;;;5043531;28;20055;-80
2023/01/29 01:26:49;;;;;;;8.32;5.10;;;;;;;;;;5041616;28;20044;-77
2023/01/29 01:29:35;;;;;;;10.45;5.88;;;;;;;;;;5040503;28;20120;-78
2023/01/29 01:32:20;;;;;;;10.50;5.15;;;;;;;;;;5040613;28;20128;-80
2023/01/29 01:35:07;;;;;;;8.85;5.28;;;;;;;;;;5047973;28;20031;-79
2023/01/29 01:37:52;;;;;;;9.50;5.53;;;;;;;;;;5020123;28;20044;-78
2023/01/29 01:40:42;;;;;;;7.80;4.82;;;;;;;;;;5042408;28;20526;-72
2023/01/29 01:43:27;;;;;;;7.40;4.75;;;;;;;;;;5043479;28;20502;-75
2023/01/29 01:46:13;;;;;;;9.77;5.28;;;;;;;;;;5042612;28;20386;-75
2023/01/29 01:49:06;;;;;;;7.65;4.75;;;;;;;;;;5049200;28;20048;-75
2023/01/29 01:51:51;;;;;;;9.50;5.22;;;;;;;;;;5052753;28;20440;-77
2023/01/29 01:54:37;;;;;;;11.55;5.07;;;;;;;;;;5044817;28;20052;-76
2023/01/29 01:57:24;;;;;;;12.02;5.65;;;;;;;;;;5046743;28;20083;-75
2023/01/29 02:00:12;;;;;;;9.50;5.10;;;;;;;;;;5044254;28;20091;-73
2023/01/29 02:12:14;;;;;;;7.35;5.03;;;;;;;;;;5053014;28;20168;-70
2023/01/29 02:15:00;;;;;;;8.30;5.18;;;;;;;;;;5060487;28;20071;-70
2023/01/29 02:17:47;;;;;;;11.55;6.40;;;;;;;;;;5056141;28;20086;-68
2023/01/29 02:20:32;;;;;;;11.18;5.65;;;;;;;;;;5046602;28;20029;-71
2023/01/29 02:23:33;;;;;;;13.48;5.57;;;;;;;;;;5044937;28;20041;-71
2023/01/29 02:26:31;;;;;;;9.85;5.68;;;;;;;;;;5038858;28;20037;-70
2023/01/29 02:29:29;;;;;;;9.25;4.65;;;;;;;;;;5044145;28;20520;-70
2023/01/29 02:32:43;;;;;;;9.68;5.45;;;;;;;;;;5055047;28;20091;-72
2023/01/29 02:35:49;;;;;;;6.78;4.72;;;;;;;;;;5056703;28;20052;-71
2023/01/29 02:38:58;;;;;;;11.00;5.07;;;;;;;;;;5030626;28;20047;-72
2023/01/29 02:41:48;;;;;;;6.03;4.10;;;;;;;;;;5048967;28;20033;-70
2023/01/29 02:44:56;;;;;;;7.45;4.38;;;;;;;;;;5051857;28;20115;-70
2023/01/29 02:47:51;;;;;;;8.25;4.72;;;;;;;;;;5045190;28;20055;-70
2023/01/29 02:50:40;;;;;;;8.27;5.10;;;;;;;;;;5048211;28;20488;-71
2023/01/29 02:53:32;;;;;;;6.93;4.10;;;;;;;;;;5048343;28;20148;-70
2023/01/29 02:56:20;;;;;;;8.07;4.40;;;;;;;;;;5050236;28;20036;-70
2023/01/29 02:59:19;;;;;;;9.52;5.25;;;;;;;;;;5067777;28;20025;-72
2023/01/29 03:02:07;;;;;;;8.10;4.43;;;;;;;;;;5042995;28;20024;-72
2023/01/29 03:04:56;;;;;;;10.13;4.88;;;;;;;;;;5048414;28;20032;-71
2023/01/29 03:07:45;;;;;;;8.00;4.90;;;;;;;;;;5033412;28;20043;-70
2023/01/29 03:10:35;;;;;;;8.90;4.90;;;;;;;;;;5042557;28;20283;-71
2023/01/29 03:13:24;;;;;;;7.10;4.72;;;;;;;;;;5053409;28;20464;-68
2023/01/29 03:16:19;;;;;;;9.63;4.88;;;;;;;;;;5045128;28;20041;-72
2023/01/29 03:19:06;;;;;;;10.23;4.97;;;;;;;;;;5051302;28;20029;-73
2023/01/29 03:21:59;;;;;;;9.27;4.88;;;;;;;;;;5046801;28;20029;-73
2023/01/29 03:34:23;;;;;;;7.30;4.28;;;;;;;;;;5036743;28;21573;-74
2023/01/29 03:37:38;;;;;;;8.43;4.45;;;;;;;;;;5057291;28;20033;-74
2023/01/29 03:40:23;;;;;;;7.40;4.22;;;;;;;;;;5040528;28;20447;-73
2023/01/29 03:43:12;;;;;;;9.68;4.95;;;;;;;;;;5051308;28;20053;-75
2023/01/29 03:46:00;;;;;;;8.02;4.78;;;;;;;;;;5048175;28;20033;-76
2023/01/29 03:48:45;;;;;;;7.10;4.30;;;;;;;;;;5042466;28;20547;-74
2023/01/29 03:51:36;;;;;;;8.43;3.90;;;;;;;;;;5046872;28;20116;-78
2023/01/29 03:54:28;;;;;;;8.02;4.40;;;;;;;;;;5047228;28;20028;-78
2023/01/29 03:57:14;;;;;;;7.50;3.78;;;;;;;;;;5046636;28;20044;-80
2023/01/29 04:00:35;;;;;;;8.38;4.13;;;;;;;;;;5043090;28;20027;-79
2023/01/29 04:03:28;;;;;;;8.18;4.20;;;;;;;;;;4951480;28;20425;-81
2023/01/29 04:06:22;;;;;;;7.38;4.32;;;;;;;;;;5052752;28;20047;-69
2023/01/29 04:09:16;;;;;;;7.47;4.45;;;;;;;;;;5047989;28;20066;-74
2023/01/29 04:12:03;;;;;;;8.10;4.72;;;;;;;;;;5037067;28;20101;-73
2023/01/29 04:14:50;;;;;;;6.80;4.15;;;;;;;;;;5049382;28;20013;-73
2023/01/29 04:17:40;;;;;;;6.65;3.95;;;;;;;;;;5048071;28;20080;-73
2023/01/29 04:20:25;;;;;;;7.75;4.85;;;;;;;;;;5048273;28;20029;-76
2023/01/29 04:23:24;;;;;;;5.05;3.38;;;;;;;;;;5052537;28;20459;-74
2023/01/29 04:26:18;;;;;;;7.75;4.75;;;;;;;;;;5054252;28;20028;-71
2023/01/29 04:29:08;;;;;;;7.47;4.45;;;;;;;;;;5044017;28;20041;-76
2023/01/29 04:32:10;;;;;;;6.65;4.15;;;;;;;;;;5042201;28;20025;-75
2023/01/29 04:34:55;;;;;;;7.97;4.90;;;;;;;;;;5047328;28;20036;-76
2023/01/29 04:37:46;;;;;;;9.18;3.83;;;;;;;;;;5045082;28;20081;-76
2023/01/29 04:40:38;;;;;;;8.93;5.00;;;;;;;;;;5046826;28;20044;-76
2023/01/29 04:43:37;;;;;;;8.65;4.53;;;;;;;;;;5045279;28;20072;-76
2023/01/29 04:46:28;;;;;;;10.35;4.82;;;;;;;;;;5044425;28;20342;-76
2023/01/29 04:49:16;;;;;;;10.90;6.10;;;;;;;;;;5049809;28;20041;-75
2023/01/29 04:52:11;;;;;;;9.07;5.33;;;;;;;;;;5061642;28;20065;-77
2023/01/29 04:55:02;;;;;;;8.52;5.00;;;;;;;;;;5045835;28;20892;-78
2023/01/29 04:57:48;;;;;;;8.80;4.80;;;;;;;;;;5044405;28;20716;-77
2023/01/29 05:00:35;;;;;;;9.07;5.03;;;;;;;;;;5042109;28;20040;-77
2023/01/29 05:03:26;;;;;;;8.70;4.68;;;;;;;;;;5044805;28;20094;-71
2023/01/29 05:06:11;;;;;;;8.65;4.88;;;;;;;;;;5046388;28;20499;-68
2023/01/29 05:08:58;;;;;;;8.48;4.25;;;;;;;;;;5044570;28;20068;-69
2023/01/29 05:11:44;;;;;;;7.93;4.65;;;;;;;;;;5044812;28;20033;-69
2023/01/29 05:14:31;;;;;;;7.05;4.85;;;;;;;;;;5045112;28;20635;-67
2023/01/29 05:17:18;;;;;;;7.50;4.45;;;;;;;;;;5043422;28;20520;-69
2023/01/29 05:20:04;;;;;;;6.72;4.00;;;;;;;;;;5071096;28;20078;-84
2023/01/29 05:22:50;;;;;;;7.88;4.70;;;;;;;;;;5046731;28;20428;-76
2023/01/29 05:25:35;;;;;;;8.98;4.88;;;;;;;;;;5041557;28;20067;-76
2023/01/29 05:28:20;;;;;;;7.85;4.85;;;;;;;;;;5043093;28;20028;-76
2023/01/29 05:31:06;;;;;;;8.55;4.43;;;;;;;;;;5039995;28;20029;-76
2023/01/29 05:33:51;;;;;;;9.02;5.07;;;;;;;;;;5044667;28;20078;-74
2023/01/29 05:36:36;;;;;;;9.25;4.72;;;;;;;;;;5040219;28;20094;-74
2023/01/29 05:39:21;;;;;;;7.80;4.35;;;;;;;;;;5042016;28;20029;-70
2023/01/29 05:42:06;;;;;;;7.72;4.63;;;;;;;;;;5044157;28;20052;-75
2023/01/29 05:44:52;;;;;;;9.25;5.03;;;;;;;;;;5045072;28;20035;-76
2023/01/29 05:47:37;;;;;;;9.20;4.40;;;;;;;;;;5043858;28;20040;-74
2023/01/29 05:50:22;;;;;;;7.18;4.28;;;;;;;;;;5045311;28;20043;-75
2023/01/29 05:53:08;;;;;;;8.20;4.65;;;;;;;;;;5043544;28;20289;-76
2023/01/29 05:55:55;;;;;;;8.55;4.28;;;;;;;;;;5043997;28;20602;-77
2023/01/29 05:58:41;;;;;;;9.90;4.95;;;;;;;;;;5041716;28;20057;-67
2023/01/29 06:01:26;;;;;;;8.38;4.72;;;;;;;;;;5030559;28;20120;-76
2023/01/29 06:04:11;;;;;;;7.35;4.28;;;;;;;;;;5044438;28;20289;-75
2023/01/29 06:06:57;;;;;;;6.72;3.63;;;;;;;;;;5045676;28;20037;-76
2023/01/29 06:09:42;;;;;;;8.75;4.55;;;;;;;;;;5044392;28;20171;-77
2023/01/29 06:12:27;;;;;;;9.10;4.72;;;;;;;;;;5048991;28;20025;-77
2023/01/29 06:15:18;;;;;;;7.82;4.00;;;;;;;;;;5038505;28;20099;-71
2023/01/29 06:18:03;;;;;;;8.27;5.05;;;;;;;;;;5045895;28;20068;-75
2023/01/29 06:20:48;;;;;;;8.52;4.88;;;;;;;;;;5050089;28;20578;-77
2023/01/29 06:23:34;;;;;;;8.85;4.70;;;;;;;;;;5054512;28;20072;-76
2023/01/29 06:26:19;;;;;;;7.53;4.72;;;;;;;;;;5047736;28;20086;-76
2023/01/29 06:29:04;;;;;;;8.98;4.47;;;;;;;;;;5045259;28;20065;-76
2023/01/29 06:31:50;;;;;;;12.52;5.13;;;;;;;;;;5043305;28;20033;-76
2023/01/29 06:34:35;;;;;;;8.50;4.95;;;;;;;;;;5051260;28;20058;-68
2023/01/29 06:37:20;;;;;;;9.60;5.10;;;;;;;;;;5044424;28;20020;-72
2023/01/29 06:40:06;;;;;;;8.45;4.93;;;;;;;;;;5034253;28;20028;-71
2023/01/29 06:42:51;;;;;;;9.25;4.53;;;;;;;;;;5048239;28;20033;-71
2023/01/29 06:45:36;;;;;;;8.63;4.68;;;;;;;;;;5045657;28;20032;-71
2023/01/29 06:48:22;;;;;;;7.03;4.75;;;;;;;;;;5056687;28;20040;-70
2023/01/29 06:51:08;;;;;;;8.25;4.75;;;;;;;;;;5048143;28;20032;-72
2023/01/29 06:53:54;;;;;;;8.15;4.80;;;;;;;;;;5040707;28;20021;-74
2023/01/29 06:56:40;;;;;;;9.43;4.90;;;;;;;;;;5053738;28;20112;-75
2023/01/29 06:59:25;;;;;;;9.95;5.18;;;;;;;;;;5044677;28;20024;-76
2023/01/29 07:02:10;;;;;;;10.13;4.60;;;;;;;;;;5047107;28;20585;-75
2023/01/29 07:04:55;;;;;;;7.13;3.95;;;;;;;;;;5048497;28;20056;-75
2023/01/29 07:07:40;;;;;;;7.40;4.90;;;;;;;;;;5060879;28;20175;-75
2023/01/29 07:10:26;;;;;;;9.70;4.75;;;;;;;;;;5058707;28;20131;-76
2023/01/29 07:13:11;;;;;;;7.85;4.88;;;;;;;;;;5051524;28;20079;-75
2023/01/29 07:15:57;;;;;;;7.22;4.70;;;;;;;;;;5059238;28;20081;-77
2023/01/29 07:18:42;;;;;;;11.35;5.38;;;;;;;;;;5049343;28;20241;-75
2023/01/29 07:21:28;;;;;;;8.52;4.68;;;;;;;;;;5050933;28;20139;-75
2023/01/29 07:24:13;;;;;;;9.77;5.03;;;;;;;;;;5041494;28;20059;-76
2023/01/29 07:26:58;;;;;;;10.98;4.97;;;;;;;;;;5053863;28;20032;-75
2023/01/29 07:29:43;;;;;;;8.15;4.43;;;;;;;;;;5048371;28;20118;-70
2023/01/29 07:32:29;;;;;;;7.75;4.47;;;;;;;;;;5046357;28;20013;-70
2023/01/29 07:35:14;;;;;;;12.07;4.80;;;;;;;;;;5043542;28;20060;-71
2023/01/29 07:37:59;;;;;;;8.52;4.35;;;;;;;;;;5044859;28;20033;-70
2023/01/29 07:40:44;;;;;;;8.15;4.93;;;;;;;;;;5049592;28;20033;-71
2023/01/29 07:43:30;;;;;;;8.07;4.88;;;;;;;;;;5042281;28;20029;-70
2023/01/29 07:46:15;;;;;;;9.25;4.90;;;;;;;;;;5045288;28;20041;-70
2023/01/29 07:49:00;;;;;;;8.07;4.90;;;;;;;;;;5050338;28;20040;-66
2023/01/29 07:51:45;;;;;;;9.32;4.97;;;;;;;;;;5048839;28;20047;-70
2023/01/29 07:54:30;;;;;;;8.00;5.15;;;;;;;;;;5046464;28;20029;-70
2023/01/29 07:57:16;;;;;;;7.88;4.53;;;;;;;;;;5036641;28;20041;-69
2023/01/29 08:00:01;;;;;;;8.52;4.97;;;;;;;;;;5048572;28;20025;-72
2023/01/29 08:02:46;;;;;;;9.30;5.25;;;;;;;;;;5048143;28;20554;-71
2023/01/29 08:05:32;;;;;;;10.93;5.40;;;;;;;;;;5048467;28;20086;-75
2023/01/29 08:08:18;;;;;;;9.65;5.80;;;;;;;;;;5034864;28;20036;-74
2023/01/29 08:11:04;;;;;;;9.45;5.40;;;;;;;;;;5046154;28;20036;-74
2023/01/29 08:13:49;;;;;;;7.50;4.63;;;;;;;;;;5048110;28;20020;-72
2023/01/29 08:16:34;;;;;;;12.68;5.10;;;;;;;;;;5043590;28;20496;-72
2023/01/29 08:19:20;;;;;;;9.80;5.35;;;;;;;;;;5043531;28;20036;-74
2023/01/29 08:22:05;;;;;;;10.60;5.20;;;;;;;;;;5041681;28;20505;-72
2023/01/29 08:24:50;;;;;;;10.02;6.00;;;;;;;;;;5051069;28;20040;-71
2023/01/29 08:27:36;;;;;;;9.88;5.63;;;;;;;;;;5042831;28;20036;-82
2023/01/29 08:30:22;;;;;;;7.90;5.03;;;;;;;;;;5049216;28;20096;-83
2023/01/29 08:33:07;;;;;;;9.40;5.22;;;;;;;;;;5054844;28;20029;-81
2023/01/29 08:35:52;;;;;;;10.35;6.20;;;;;;;;;;5054156;28;20516;-87
2023/01/29 08:38:37;;;;;;;9.45;6.45;;;;;;;;;;5046800;28;20028;-80
2023/01/29 08:41:22;;;;;;;9.20;5.53;;;;;;;;;;5044530;28;20396;-80
2023/01/29 08:44:08;;;;;;;8.88;4.93;;;;;;;;;;5043391;28;20119;-71
2023/01/29 08:46:53;;;;;;;11.30;5.72;;;;;;;;;;5040956;28;20031;-74
2023/01/29 08:49:38;;;;;;;9.73;6.10;;;;;;;;;;5045282;28;20072;-76
2023/01/29 08:52:23;;;;;;;10.27;5.72;;;;;;;;;;5063898;28;20111;-75
2023/01/29 08:55:09;;;;;;;10.65;5.70;;;;;;;;;;5047567;28;20162;-75
2023/01/29 08:57:56;;;;;;;9.45;5.65;;;;;;;;;;5060637;28;20052;-73
2023/01/29 09:00:41;;;;;;;8.30;5.25;;;;;;;;;;5045200;28;20794;-75
2023/01/29 09:03:26;;;;;;;8.32;5.15;;;;;;;;;;5053076;28;20017;-73
2023/01/29 09:06:13;;;;;;;8.82;4.95;;;;;;;;;;5047760;28;20040;-72
2023/01/29 09:08:58;;;;;;;10.60;6.30;;;;;;;;;;5032482;28;20041;-71
2023/01/29 09:11:43;;;;;;;12.63;6.68;;;;;;;;;;5041479;28;20032;-73
2023/01/29 09:14:29;;;;;;;9.88;5.60;;;;;;;;;;5045376;28;20062;-74
2023/01/29 09:17:14;;;;;;;9.70;6.03;;;;;;;;;;5040663;28;20120;-77
2023/01/29 09:19:59;;;;;;;11.05;6.38;;;;;;;;;;5056095;28;20028;-77
2023/01/29 09:22:45;;;;;;;10.07;4.97;;;;;;;;;;5062781;28;20411;-68
2023/01/29 09:25:30;;;;;;;9.68;5.35;;;;;;;;;;5059899;28;20029;-66
2023/01/29 09:28:19;;;;;;;10.07;5.60;;;;;;;;;;5043677;28;20061;-68
2023/01/29 09:31:04;;;;;;;9.57;5.38;;;;;;;;;;5046139;28;20029;-67
2023/01/29 09:33:49;;;;;;;10.48;5.70;;;;;;;;;;5038947;28;20025;-71
2023/01/29 09:36:34;;;;;;;9.57;6.10;;;;;;;;;;5057414;28;20119;-69
2023/01/29 09:39:19;;;;;;;10.77;5.53;;;;;;;;;;5043922;28;20108;-69
2023/01/29 09:42:08;;;;;;;10.07;5.75;;;;;;;;;;5044248;28;20024;-72
2023/01/29 09:44:53;;;;;;;7.30;4.78;;;;;;;;;;5046586;28;20167;-74
2023/01/29 09:47:39;;;;;;;9.98;6.38;;;;;;;;;;5049597;28;20041;-72
2023/01/29 09:50:27;;;;;;;11.93;5.97;;;;;;;;;;5046295;28;20029;-72
2023/01/29 09:53:12;;;;;;;11.10;5.50;;;;;;;;;;5043555;28;20082;-72
2023/01/29 09:56:05;;;;;;;9.30;6.35;;;;;;;;;;5045594;28;20104;-71
2023/01/29 09:58:51;;;;;;;9.55;5.32;;;;;;;;;;5047362;28;20025;-78
2023/01/29 10:01:36;;;;;;;7.90;5.20;;;;;;;;;;5044105;28;20070;-79
2023/01/29 10:04:40;;;;;;;10.77;6.32;;;;;;;;;;5045550;28;20512;-77
2023/01/29 10:07:31;;;;;;;9.57;5.35;;;;;;;;;;5055405;28;20066;-79
2023/01/29 10:10:35;;;;;;;7.57;4.70;;;;;;;;;;5032750;28;20148;-78
2023/01/29 10:13:23;;;;;;;11.50;5.53;;;;;;;;;;5045079;28;20036;-78
2023/01/29 10:16:27;;;;;;;13.02;6.70;;;;;;;;;;5044223;28;20033;-79
2023/01/29 10:19:21;;;;;;;11.60;6.60;;;;;;;;;;5048619;28;20029;-79
2023/01/29 10:22:06;;;;;;;16.92;7.68;;;;;;;;;;5045447;28;20044;-78
2023/01/29 10:24:56;;;;;;;9.82;6.20;;;;;;;;;;5044926;28;20037;-78
2023/01/29 10:27:47;;;;;;;11.70;6.50;;;;;;;;;;5057012;28;20121;-80
2023/01/29 10:30:36;;;;;;;8.70;5.60;;;;;;;;;;5045495;28;20044;-77
2023/01/29 10:33:26;;;;;;;10.25;6.47;;;;;;;;;;5042862;28;20021;-71
2023/01/29 10:36:17;;;;;;;10.23;6.28;;;;;;;;;;5048404;28;20103;-73
2023/01/29 10:39:02;;;;;;;10.77;6.30;;;;;;;;;;5051323;28;20052;-72
2023/01/29 10:42:07;;;;;;;11.63;6.82;;;;;;;;;;5045206;28;20041;-75
2023/01/29 10:44:52;;;;;;;8.85;5.50;;;;;;;;;;5050083;28;20037;-75
2023/01/29 10:47:43;;;;;;;9.55;5.97;;;;;;;;;;5049611;28;20025;-76
2023/01/29 10:50:45;;;;;;;10.52;5.68;;;;;;;;;;5048192;28;20037;-74
2023/01/29 10:53:37;;;;;;;10.65;6.18;;;;;;;;;;5036388;28;20022;-75
2023/01/29 10:56:42;;;;;;;13.43;6.45;;;;;;;;;;5046470;28;20025;-77
2023/01/29 10:59:46;;;;;;;11.35;6.22;;;;;;;;;;5051089;28;20032;-81
2023/01/29 11:02:32;;;;;;;10.68;6.35;;;;;;;;;;5066810;28;20032;-74
2023/01/29 11:05:20;;;;;;;9.38;5.72;;;;;;;;;;5050689;28;20051;-77
2023/01/29 11:08:09;;;;;;;11.52;7.03;;;;;;;;;;5047771;28;21507;-78
2023/01/29 11:10:57;;;;;;;12.88;6.28;;;;;;;;;;5058428;28;20028;-73
2023/01/29 11:13:45;;;;;;;10.38;6.50;;;;;;;;;;5044680;28;20033;-74
2023/01/29 11:16:32;;;;;;;9.18;6.10;;;;;;;;;;5043705;28;20200;-75
2023/01/29 11:19:17;;;;;;;10.10;5.82;;;;;;;;;;5049724;28;20468;-75
2023/01/29 11:22:03;;;;;;;8.65;5.78;;;;;;;;;;5048982;28;20025;-75
2023/01/29 11:25:06;;;;;;;9.05;5.70;;;;;;;;;;5064343;28;20058;-76
2023/01/29 11:27:54;;;;;;;9.90;5.95;;;;;;;;;;5045993;28;20044;-72
2023/01/29 11:30:40;;;;;;;9.82;6.20;;;;;;;;;;5047229;28;20041;-76
2023/01/29 11:33:29;;;;;;;12.63;6.70;;;;;;;;;;5049023;28;20057;-77
2023/01/29 11:36:33;;;;;;;10.55;6.25;;;;;;;;;;5054648;28;20029;-76
2023/01/29 11:39:20;;;;;;;11.23;6.60;;;;;;;;;;5053036;28;20036;-77
2023/01/29 11:42:17;;;;;;;11.73;6.05;;;;;;;;;;5051239;28;20017;-71
2023/01/29 11:45:03;;;;;;;13.55;6.28;;;;;;;;;;5062403;28;20531;-72
2023/01/29 11:47:51;;;;;;;13.20;6.07;;;;;;;;;;5031940;28;20801;-64
2023/01/29 11:50:36;;;;;;;11.13;6.70;;;;;;;;;;5046247;28;20116;-63
2023/01/29 11:53:32;;;;;;;12.05;6.95;;;;;;;;;;5046028;28;20112;-64
2023/01/29 11:56:20;;;;;;;11.90;6.72;;;;;;;;;;5053556;28;20100;-69
2023/01/29 11:59:19;;;;;;;10.45;5.97;;;;;;;;;;5048174;28;20029;-68
2023/01/29 12:02:25;;;;;;;9.90;6.28;;;;;;;;;;5042394;28;20032;-67
2023/01/29 12:05:15;;;;;;;10.93;6.57;;;;;;;;;;5054635;28;20040;-75
2023/01/29 12:08:01;;;;;;;10.77;5.97;;;;;;;;;;5044008;28;20030;-73
2023/01/29 12:10:46;;;;;;;10.45;6.68;;;;;;;;;;5044482;28;20032;-73
2023/01/29 12:13:31;;;;;;;10.38;6.97;;;;;;;;;;5047565;28;20029;-72
2023/01/29 12:16:20;;;;;;;10.07;6.28;;;;;;;;;;5053686;28;20064;-72
2023/01/29 12:19:25;;;;;;;9.97;5.73;;;;;;;;;;5053221;28;20028;-73
2023/01/29 12:22:22;;;;;;;11.40;5.90;;;;;;;;;;5045939;28;20280;-71
2023/01/29 12:25:16;;;;;;;9.70;6.28;;;;;;;;;;5039177;28;20033;-78
2023/01/29 12:28:25;;;;;;;10.05;5.90;;;;;;;;;;5046595;28;20040;-77
2023/01/29 12:31:28;;;;;;;14.35;7.10;;;;;;;;;;5062185;28;20119;-75
2023/01/29 12:34:18;;;;;;;11.43;7.30;;;;;;;;;;5048363;28;20068;-74
2023/01/29 12:37:18;;;;;;;11.18;6.82;;;;;;;;;;5072965;28;20523;-75
2023/01/29 12:40:10;;;;;;;11.43;6.13;;;;;;;;;;5042927;28;21047;-75
2023/01/29 12:42:59;;;;;;;11.43;6.45;;;;;;;;;;5043989;28;20122;-71
2023/01/29 12:45:46;;;;;;;10.77;6.55;;;;;;;;;;5049430;28;20039;-72
2023/01/29 12:48:33;;;;;;;9.93;6.25;;;;;;;;;;5039647;28;20123;-71
2023/01/29 12:51:24;;;;;;;10.25;5.72;;;;;;;;;;5063059;28;20083;-74
2023/01/29 12:54:13;;;;;;;11.63;6.25;;;;;;;;;;5047202;28;20021;-73
2023/01/29 12:56:59;;;;;;;10.13;6.82;;;;;;;;;;5047364;28;20063;-72
2023/01/29 12:59:48;;;;;;;12.18;6.32;;;;;;;;;;5053102;28;20043;-75
2023/01/29 13:02:45;;;;;;;10.00;7.05;;;;;;;;;;5046086;28;20025;-74
2023/01/29 13:05:37;;;;;;;9.88;6.50;;;;;;;;;;5048003;28;20035;-75
2023/01/29 13:08:25;;;;;;;11.10;6.82;;;;;;;;;;5055488;28;20041;-75
2023/01/29 13:11:29;;;;;;;13.23;7.20;;;;;;;;;;5050540;28;20025;-75
2023/01/29 13:14:19;;;;;;;13.10;6.50;;;;;;;;;;5049799;28;20062;-75
2023/01/29 13:17:12;;;;;;;11.38;6.72;;;;;;;;;;5046229;28;20033;-74
2023/01/29 13:19:59;;;;;;;11.60;7.15;;;;;;;;;;5054262;28;20041;-67
2023/01/29 13:22:45;;;;;;;11.40;6.70;;;;;;;;;;5050220;28;20061;-75
2023/01/29 13:25:31;;;;;;;11.50;7.25;;;;;;;;;;5048969;28;20497;-75
2023/01/29 13:28:18;;;;;;;10.45;6.65;;;;;;;;;;5037676;28;20159;-74
2023/01/29 13:31:26;;;;;;;13.77;7.10;;;;;;;;;;5049908;28;20034;-76
2023/01/29 13:34:13;;;;;;;12.18;6.43;;;;;;;;;;5047988;28;20067;-76
2023/01/29 13:37:07;;;;;;;10.50;6.63;;;;;;;;;;5055502;28;20053;-75
2023/01/29 13:39:53;;;;;;;13.25;7.00;;;;;;;;;;5046471;28;20086;-74
2023/01/29 13:42:42;;;;;;;12.68;6.85;;;;;;;;;;5047431;28;20282;-74
2023/01/29 13:45:35;;;;;;;9.93;6.67;;;;;;;;;;5050699;28;20077;-74
2023/01/29 13:48:24;;;;;;;10.75;6.53;;;;;;;;;;5040442;28;20024;-73
2023/01/29 13:51:16;;;;;;;10.90;6.65;;;;;;;;;;5046752;28;20370;-74
2023/01/29 13:54:04;;;;;;;11.93;7.07;;;;;;;;;;5046689;28;20048;-72
2023/01/29 13:56:58;;;;;;;11.40;7.18;;;;;;;;;;5040610;28;20041;-70
2023/01/29 13:59:54;;;;;;;12.50;7.22;;;;;;;;;;5062135;22;20103;-68
2023/01/29 14:02:39;;;;;;;9.90;6.70;;;;;;;;;;5031393;28;20033;-67
2023/01/29 14:05:30;;;;;;;10.32;6.07;;;;;;;;;;5033245;28;20029;-67
2023/01/29 14:08:34;;;;;;;10.45;6.72;;;;;;;;;;5043276;28;20131;-67
2023/01/29 14:11:20;;;;;;;11.10;7.15;;;;;;;;;;5036226;28;20032;-68
2023/01/29 14:14:25;;;;;;;12.82;7.75;;;;;;;;;;5029491;28;20074;-68
2023/01/29 14:17:10;;;;;;;14.93;7.28;;;;;;;;;;5037833;28;20017;-69
2023/01/29 14:20:14;;;;;;;10.05;6.30;;;;;;;;;;5019646;28;20025;-68
2023/01/29 14:23:00;;;;;;;12.65;7.88;;;;;;;;;;5047947;28;20021;-66
2023/01/29 14:25:46;;;;;;;11.85;6.80;;;;;;;;;;5032452;28;20086;-69
2023/01/29 14:28:32;;;;;;;9.85;6.20;;;;;;;;;;5036156;28;20468;-68
2023/01/29 14:31:47;;;;;;;12.98;7.15;;;;;;;;;;5027680;28;20111;-67
2023/01/29 14:34:34;;;;;;;13.38;7.60;;;;;;;;;;5043663;28;20040;-74
2023/01/29 14:37:39;;;;;;;15.32;7.40;;;;;;;;;;5039555;28;20464;-74
2023/01/29 14:40:25;;;;;;;11.38;6.78;;;;;;;;;;5040172;28;20032;-75
2023/01/29 14:43:29;;;;;;;13.02;7.20;;;;;;;;;;5031154;28;20028;-76
2023/01/29 14:46:46;;;;;;;14.05;7.80;;;;;;;;;;5037975;28;20035;-76
2023/01/29 14:49:48;;;;;;;13.00;7.10;;;;;;;;;;4989142;28;20033;-76
2023/01/29 14:52:38;;;;;;;13.63;7.53;;;;;;;;;;5034260;28;20021;-66
2023/01/29 14:55:28;;;;;;;12.23;7.13;;;;;;;;;;5044331;28;20016;-72
2023/01/29 14:58:35;;;;;;;10.88;7.00;;;;;;;;;;5035141;28;20541;-73
2023/01/29 15:01:29;;;;;;;12.02;6.50;;;;;;;;;;5031824;28;20032;-72
2023/01/29 15:04:34;;;;;;;11.77;6.82;;;;;;;;;;5037923;28;20052;-73
2023/01/29 15:07:33;;;;;;;12.25;7.28;;;;;;;;;;5051297;28;20056;-72
2023/01/29 15:10:20;;;;;;;9.50;5.90;;;;;;;;;;5032997;28;20056;-73
2023/01/29 15:13:28;;;;;;;10.68;7.35;;;;;;;;;;5035945;28;20036;-73
2023/01/29 15:16:16;;;;;;;11.40;6.95;;;;;;;;;;5019871;28;20033;-69
2023/01/29 15:19:13;;;;;;;10.98;6.40;;;;;;;;;;5033938;28;20032;-71
2023/01/29 15:25:34;;;;;;;11.25;6.10;;;;;;;;;;5034608;28;20515;-70
2023/01/29 15:28:20;;;;;;;13.00;7.95;;;;;;;;;;5057513;28;20029;-76
2023/01/29 15:31:10;;;;;;;11.45;6.80;;;;;;;;;;5027231;28;20064;-69
2023/01/29 15:33:56;;;;;;;11.07;6.47;;;;;;;;;;5026803;28;20021;-67
2023/01/29 15:36:41;;;;;;;14.35;7.47;;;;;;;;;;5033925;28;20068;-65
2023/01/29 15:39:27;;;;;;;12.18;6.53;;;;;;;;;;5039265;28;20032;-67
2023/01/29 15:42:15;;;;;;;16.48;6.88;;;;;;;;;;5033249;28;20032;-65
2023/01/29 15:45:01;;;;;;;13.73;7.65;;;;;;;;;;5040527;28;20096;-65
2023/01/29 15:47:47;;;;;;;12.50;6.32;;;;;;;;;;5043482;28;20036;-66
2023/01/29 15:50:34;;;;;;;19.38;7.20;;;;;;;;;;5029446;28;20040;-73
2023/01/29 15:53:22;;;;;;;14.25;8.15;;;;;;;;;;5027669;28;20056;-74
2023/01/29 15:56:11;;;;;;;14.15;6.93;;;;;;;;;;5028480;28;20029;-74
2023/01/29 15:58:58;;;;;;;12.77;7.13;;;;;;;;;;5043541;28;20252;-74
2023/01/29 16:01:43;;;;;;;10.48;6.10;;;;;;;;;;5037224;28;20025;-74
2023/01/29 16:04:30;;;;;;;13.68;7.07;;;;;;;;;;5032458;28;20057;-67
2023/01/29 16:07:15;;;;;;;15.45;7.07;;;;;;;;;;5029374;28;20028;-68
2023/01/29 16:10:01;;;;;;;13.60;6.40;;;;;;;;;;5038102;28;20097;-67
2023/01/29 16:12:50;;;;;;;12.75;6.60;;;;;;;;;;5040321;28;20481;-65
2023/01/29 16:15:36;;;;;;;10.88;5.70;;;;;;;;;;5023759;28;20024;-67
2023/01/29 16:18:23;;;;;;;12.98;7.60;;;;;;;;;;5038772;28;20025;-66
2023/01/29 16:21:11;;;;;;;12.40;6.63;;;;;;;;;;5014524;28;20465;-67
2023/01/29 16:24:01;;;;;;;12.73;5.90;;;;;;;;;;5039578;28;20060;-73
2023/01/29 16:26:46;;;;;;;;;;;;;;;;;;5043863;28;20100;-69
2023/01/29 16:29:32;;;;;;;14.55;7.68;;;;;;;;;;5035235;28;19986;-71
2023/01/29 16:32:18;;;;;;;11.50;6.75;;;;;;;;;;5032629;28;20472;-69
2023/01/29 16:35:04;;;;;;;15.73;5.75;;;;;;;;;;5026022;28;20095;-71
2023/01/29 16:37:50;;;;;;;13.82;6.85;;;;;;;;;;5032789;28;20504;-69
2023/01/29 16:40:36;;;;;;;11.40;7.22;;;;;;;;;;5034933;28;20364;-67
2023/01/29 16:43:22;;;;;;;11.40;6.30;;;;;;;;;;5019881;28;20032;-75
2023/01/29 16:46:19;;;;;;;14.98;8.15;;;;;;;;;;5037927;28;20047;-71
2023/01/29 16:49:23;;;;;;;14.90;7.13;;;;;;;;;;5035860;28;20044;-69
2023/01/29 16:52:25;;;;;;;14.00;7.97;;;;;;;;;;5037318;28;20024;-69
2023/01/29 16:55:10;;;;;;;15.15;7.78;;;;;;;;;;5031455;28;20037;-71
2023/01/29 16:57:56;;;;;;;19.98;7.75;;;;;;;;;;5040646;28;20027;-69
2023/01/29 17:00:46;;;;;;;17.05;8.38;;;;;;;;;;5008303;28;20128;-70
2023/01/29 17:03:32;;;;;;;13.40;7.47;;;;;;;;;;5016743;28;20034;-71
2023/01/29 17:06:23;;;;;;;12.85;7.97;;;;;;;;;;5006001;28;20025;-71
2023/01/29 17:09:18;;;;;;;12.90;7.47;;;;;;;;;;5002124;28;20404;-71
2023/01/29 17:12:07;;;;;;;12.40;6.85;;;;;;;;;;5016757;28;20037;-71
2023/01/29 17:14:56;;;;;;;12.50;6.97;;;;;;;;;;4984184;28;20022;-68
2023/01/29 17:17:42;;;;;;;13.15;7.70;;;;;;;;;;5016305;28;20030;-71
2023/01/29 17:20:28;;;;;;;14.82;7.40;;;;;;;;;;5003558;28;20514;-74
2023/01/29 17:23:13;;;;;;;14.65;7.45;;;;;;;;;;5004900;28;20043;-66